sensor_id;sensor_type;location;lat;lon;timestamp;pressure;altitude;pressure_sealevel;temperature;humidity
4598;BME280;62772;48.646;8.906;2023-12-20T00:04:29;96275.97;;;3.73;100.00
4598;BME280;62772;48.646;8.906;2023-12-20T00:09:29;96268.03;;;3.73;100.00
4598;BME280;62772;48.646;8.906;2023-12-20T00:14:30;96264.06;;;3.70;100.00
4598;BME280;62772;48.646;8.906;2023-12-20T00:19:30;96257.47;;;3.73;100.00
4598;BME280;62772;48.646;8.906;2023-12-20T00:24:31;96260.91;;;3.68;100.00
4598;BME280;62772;48.646;8.906;2023-12-20T00:29:31;96255.38;;;3.65;100.00
4598;BME280;62772;48.646;8.906;2023-12-20T00:34:32;96251.38;;;3.67;100.00
4598;BME280;62772;48.646;8.906;2023-12-20T00:39:32;96238.22;;;3.47;100.00
4598;BME280;62772;48.646;8.906;2023-12-20T00:44:33;96225.56;;;3.49;100.00
4598;BME280;62772;48.646;8.906;2023-12-20T00:49:33;96227.91;;;3.40;100.00
4598;BME280;62772;48.646;8.906;2023-12-20T00:54:34;96232.41;;;3.39;100.00
4598;BME280;62772;48.646;8.906;2023-12-20T00:59:34;96240.59;;;3.48;100.00
4598;BME280;62772;48.646;8.906;2023-12-20T01:04:35;96245.88;;;3.43;100.00
4598;BME280;62772;48.646;8.906;2023-12-20T01:09:35;96240.88;;;3.52;100.00
4598;BME280;62772;48.646;8.906;2023-12-20T01:14:36;96246.66;;;3.54;100.00
4598;BME280;62772;48.646;8.906;2023-12-20T01:19:36;96248.78;;;3.57;100.00
4598;BME280;62772;48.646;8.906;2023-12-20T01:24:37;96250.88;;;3.44;100.00
4598;BME280;62772;48.646;8.906;2023-12-20T01:29:37;96244.28;;;3.37;100.00
4598;BME280;62772;48.646;8.906;2023-12-20T01:34:37;96248.78;;;3.26;100.00
4598;BME280;62772;48.646;8.906;2023-12-20T01:39:38;96251.16;;;3.38;100.00
4598;BME280;62772;48.646;8.906;2023-12-20T01:44:38;96248.50;;;3.48;100.00
4598;BME280;62772;48.646;8.906;2023-12-20T01:49:39;96253.03;;;3.37;100.00
4598;BME280;62772;48.646;8.906;2023-12-20T01:54:40;96239.81;;;3.48;100.00
4598;BME280;62772;48.646;8.906;2023-12-20T01:59:42;96233.72;;;3.52;100.00
4598;BME280;62772;48.646;8.906;2023-12-20T02:04:42;96230.56;;;3.50;100.00
4598;BME280;62772;48.646;8.906;2023-12-20T02:09:43;96235.06;;;3.55;100.00
4598;BME280;62772;48.646;8.906;2023-12-20T02:14:44;96243.78;;;3.50;100.00
4598;BME280;62772;48.646;8.906;2023-12-20T02:19:44;96223.41;;;3.61;100.00
4598;BME280;62772;48.646;8.906;2023-12-20T02:24:45;96230.28;;;3.57;100.00
4598;BME280;62772;48.646;8.906;2023-12-20T02:29:47;96233.97;;;3.71;100.00
4598;BME280;62772;48.646;8.906;2023-12-20T02:34:48;96231.06;;;3.68;100.00
4598;BME280;62772;48.646;8.906;2023-12-20T02:39:48;96231.34;;;3.56;100.00
4598;BME280;62772;48.646;8.906;2023-12-20T02:44:49;96235.81;;;3.60;100.00
4598;BME280;62772;48.646;8.906;2023-12-20T02:49:49;96229.75;;;3.50;100.00
4598;BME280;62772;48.646;8.906;2023-12-20T02:54:50;96241.13;;;3.50;100.00
4598;BME280;62772;48.646;8.906;2023-12-20T02:59:50;96237.41;;;3.51;100.00
4598;BME280;62772;48.646;8.906;2023-12-20T03:04:50;96239.25;;;3.40;100.00
4598;BME280;62772;48.646;8.906;2023-12-20T03:09:51;96245.34;;;3.46;100.00
4598;BME280;62772;48.646;8.906;2023-12-20T03:14:51;96247.72;;;3.53;100.00
4598;BME280;62772;48.646;8.906;2023-12-20T03:19:52;96252.47;;;3.45;100.00
4598;BME280;62772;48.646;8.906;2023-12-20T03:24:52;96257.75;;;3.40;100.00
4598;BME280;62772;48.646;8.906;2023-12-20T03:29:53;96266.47;;;3.36;100.00
4598;BME280;62772;48.646;8.906;2023-12-20T03:34:53;96267.00;;;3.58;100.00
4598;BME280;62772;48.646;8.906;2023-12-20T03:39:54;96270.19;;;3.30;100.00
4598;BME280;62772;48.646;8.906;2023-12-20T03:44:55;96278.63;;;3.26;100.00
4598;BME280;62772;48.646;8.906;2023-12-20T03:49:55;96277.81;;;3.26;100.00
4598;BME280;62772;48.646;8.906;2023-12-20T03:54:55;96278.88;;;3.30;100.00
4598;BME280;62772;48.646;8.906;2023-12-20T03:59:56;96278.88;;;3.30;100.00
4598;BME280;62772;48.646;8.906;2023-12-20T04:04:56;96272.28;;;3.22;100.00
4598;BME280;62772;48.646;8.906;2023-12-20T04:09:57;96280.97;;;3.13;100.00
4598;BME280;62772;48.646;8.906;2023-12-20T04:14:57;96286.00;;;3.14;100.00
4598;BME280;62772;48.646;8.906;2023-12-20T04:19:57;96288.34;;;3.00;100.00
4598;BME280;62772;48.646;8.906;2023-12-20T04:24:58;96286.00;;;3.04;100.00
4598;BME280;62772;48.646;8.906;2023-12-20T04:29:58;96285.44;;;3.07;100.00
4598;BME280;62772;48.646;8.906;2023-12-20T04:34:59;96286.81;;;3.25;100.00
4598;BME280;62772;48.646;8.906;2023-12-20T04:39:59;96286.47;;;2.96;100.00
4598;BME280;62772;48.646;8.906;2023-12-20T04:45:00;96297.59;;;2.98;100.00
4598;BME280;62772;48.646;8.906;2023-12-20T04:50:00;96308.41;;;3.06;100.00
4598;BME280;62772;48.646;8.906;2023-12-20T04:55:01;96321.34;;;2.98;100.00
4598;BME280;62772;48.646;8.906;2023-12-20T05:00:01;96313.44;;;3.08;100.00
4598;BME280;62772;48.646;8.906;2023-12-20T05:05:02;96316.34;;;3.27;100.00
4598;BME280;62772;48.646;8.906;2023-12-20T05:10:03;96311.06;;;3.32;100.00
4598;BME280;62772;48.646;8.906;2023-12-20T05:15:07;96337.44;;;3.01;100.00
4598;BME280;62772;48.646;8.906;2023-12-20T05:20:08;96338.97;;;2.97;100.00
4598;BME280;62772;48.646;8.906;2023-12-20T05:25:09;96345.81;;;2.83;100.00
4598;BME280;62772;48.646;8.906;2023-12-20T05:30:09;96341.16;;;3.11;100.00
4598;BME280;62772;48.646;8.906;2023-12-20T05:35:10;96348.53;;;3.14;100.00
4598;BME280;62772;48.646;8.906;2023-12-20T05:40:11;96360.66;;;3.15;100.00
4598;BME280;62772;48.646;8.906;2023-12-20T05:45:11;96358.53;;;3.01;100.00
4598;BME280;62772;48.646;8.906;2023-12-20T05:50:12;96375.66;;;2.94;100.00
4598;BME280;62772;48.646;8.906;2023-12-20T05:55:12;96372.75;;;2.90;100.00
4598;BME280;62772;48.646;8.906;2023-12-20T06:00:13;96375.41;;;3.00;100.00
4598;BME280;62772;48.646;8.906;2023-12-20T06:05:14;96370.38;;;2.99;100.00
4598;BME280;62772;48.646;8.906;2023-12-20T06:10:15;96388.09;;;3.03;100.00
4598;BME280;62772;48.646;8.906;2023-12-20T06:15:15;96385.75;;;3.12;100.00
4598;BME280;62772;48.646;8.906;2023-12-20T06:20:15;96390.69;;;2.93;100.00
4598;BME280;62772;48.646;8.906;2023-12-20T06:25:16;96380.75;;;3.26;100.00
4598;BME280;62772;48.646;8.906;2023-12-20T06:30:17;96388.84;;;2.94;100.00
4598;BME280;62772;48.646;8.906;2023-12-20T06:35:17;96390.88;;;2.71;100.00
4598;BME280;62772;48.646;8.906;2023-12-20T06:40:17;96397.75;;;2.77;100.00
4598;BME280;62772;48.646;8.906;2023-12-20T06:45:18;96400.16;;;2.89;100.00
4598;BME280;62772;48.646;8.906;2023-12-20T06:50:18;96396.81;;;3.09;100.00
4598;BME280;62772;48.646;8.906;2023-12-20T06:55:19;96407.28;;;2.83;100.00
4598;BME280;62772;48.646;8.906;2023-12-20T07:00:19;96417.31;;;2.86;100.00
4598;BME280;62772;48.646;8.906;2023-12-20T07:05:21;96434.47;;;2.89;100.00
4598;BME280;62772;48.646;8.906;2023-12-20T07:10:21;96425.78;;;2.99;100.00
4598;BME280;62772;48.646;8.906;2023-12-20T07:15:22;96433.50;;;3.16;100.00
4598;BME280;62772;48.646;8.906;2023-12-20T07:20:23;96436.91;;;3.01;100.00
4598;BME280;62772;48.646;8.906;2023-12-20T07:25:23;96449.75;;;2.87;100.00
4598;BME280;62772;48.646;8.906;2023-12-20T07:30:23;96462.47;;;2.95;100.00
4598;BME280;62772;48.646;8.906;2023-12-20T07:35:24;96469.34;;;2.96;100.00
4598;BME280;62772;48.646;8.906;2023-12-20T07:40:25;96471.97;;;2.96;100.00
4598;BME280;62772;48.646;8.906;2023-12-20T07:45:26;96471.75;;;3.08;100.00
4598;BME280;62772;48.646;8.906;2023-12-20T07:50:26;96485.00;;;3.23;100.00
4598;BME280;62772;48.646;8.906;2023-12-20T07:55:27;96487.09;;;3.16;100.00
4598;BME280;62772;48.646;8.906;2023-12-20T08:00:28;96492.06;;;3.07;100.00
4598;BME280;62772;48.646;8.906;2023-12-20T08:05:28;96485.66;;;3.56;100.00
4598;BME280;62772;48.646;8.906;2023-12-20T08:10:28;96481.94;;;3.57;100.00
4598;BME280;62772;48.646;8.906;2023-12-20T08:15:45;96485.38;;;3.58;100.00
4598;BME280;62772;48.646;8.906;2023-12-20T08:20:45;96497.00;;;3.62;100.00
4598;BME280;62772;48.646;8.906;2023-12-20T08:25:46;96490.84;;;3.31;100.00
4598;BME280;62772;48.646;8.906;2023-12-20T08:30:46;96508.00;;;3.28;100.00
4598;BME280;62772;48.646;8.906;2023-12-20T08:35:47;96535.34;;;3.12;100.00
4598;BME280;62772;48.646;8.906;2023-12-20T08:40:47;96535.03;;;2.98;100.00
4598;BME280;62772;48.646;8.906;2023-12-20T08:45:48;96522.59;;;2.88;100.00
4598;BME280;62772;48.646;8.906;2023-12-20T08:50:49;96543.09;;;2.81;100.00
4598;BME280;62772;48.646;8.906;2023-12-20T08:55:51;96564.72;;;2.78;100.00
4598;BME280;62772;48.646;8.906;2023-12-20T09:00:52;96559.69;;;2.76;100.00
4598;BME280;62772;48.646;8.906;2023-12-20T09:05:52;96564.97;;;2.76;100.00
4598;BME280;62772;48.646;8.906;2023-12-20T09:10:53;96556.72;;;2.67;100.00
4598;BME280;62772;48.646;8.906;2023-12-20T09:15:55;96546.19;;;2.67;100.00
4598;BME280;62772;48.646;8.906;2023-12-20T09:20:55;96548.88;;;2.78;100.00
4598;BME280;62772;48.646;8.906;2023-12-20T09:25:56;96549.97;;;2.82;100.00
4598;BME280;62772;48.646;8.906;2023-12-20T09:30:56;96551.91;;;2.59;100.00
4598;BME280;62772;48.646;8.906;2023-12-20T09:35:57;96555.16;;;2.71;100.00
4598;BME280;62772;48.646;8.906;2023-12-20T09:40:58;96569.44;;;2.76;100.00
4598;BME280;62772;48.646;8.906;2023-12-20T09:46:00;96568.72;;;2.85;100.00
4598;BME280;62772;48.646;8.906;2023-12-20T09:51:02;96574.25;;;2.84;100.00
4598;BME280;62772;48.646;8.906;2023-12-20T09:56:03;96573.28;;;3.00;100.00
4598;BME280;62772;48.646;8.906;2023-12-20T10:01:06;96579.44;;;3.16;100.00
4598;BME280;62772;48.646;8.906;2023-12-20T10:06:07;96573.13;;;3.17;100.00
4598;BME280;62772;48.646;8.906;2023-12-20T10:11:08;96576.06;;;3.21;100.00
4598;BME280;62772;48.646;8.906;2023-12-20T10:16:09;96557.06;;;3.24;100.00
4598;BME280;62772;48.646;8.906;2023-12-20T10:21:09;96567.09;;;3.22;100.00
4598;BME280;62772;48.646;8.906;2023-12-20T10:26:10;96556.53;;;3.22;100.00
4598;BME280;62772;48.646;8.906;2023-12-20T10:31:26;96547.63;;;3.33;100.00
4598;BME280;62772;48.646;8.906;2023-12-20T10:36:30;96543.31;;;3.17;100.00
4598;BME280;62772;48.646;8.906;2023-12-20T10:41:32;96532.50;;;3.18;100.00
4598;BME280;62772;48.646;8.906;2023-12-20T10:46:33;96535.94;;;3.24;100.00
4598;BME280;62772;48.646;8.906;2023-12-20T10:51:34;96535.44;;;3.32;100.00
4598;BME280;62772;48.646;8.906;2023-12-20T10:56:36;96524.94;;;3.37;100.00
4598;BME280;62772;48.646;8.906;2023-12-20T11:01:40;96530.50;;;3.41;100.00
4598;BME280;62772;48.646;8.906;2023-12-20T11:06:59;96541.22;;;3.24;100.00
4598;BME280;62772;48.646;8.906;2023-12-20T11:17:09;96526.56;;;3.49;100.00
4598;BME280;62772;48.646;8.906;2023-12-20T11:22:11;96522.81;;;3.39;100.00
4598;BME280;62772;48.646;8.906;2023-12-20T11:27:13;96520.97;;;3.45;100.00
4598;BME280;62772;48.646;8.906;2023-12-20T11:37:31;96509.31;;;3.31;100.00
4598;BME280;62772;48.646;8.906;2023-12-20T11:42:39;96518.50;;;3.23;100.00
4598;BME280;62772;48.646;8.906;2023-12-20T11:47:44;96521.94;;;3.18;100.00
4598;BME280;62772;48.646;8.906;2023-12-20T11:52:45;96530.41;;;3.20;100.00
4598;BME280;62772;48.646;8.906;2023-12-20T11:57:46;96526.22;;;3.30;100.00
4598;BME280;62772;48.646;8.906;2023-12-20T12:02:59;96518.56;;;3.33;100.00
4598;BME280;62772;48.646;8.906;2023-12-20T12:07:59;96504.34;;;3.34;100.00
4598;BME280;62772;48.646;8.906;2023-12-20T12:13:00;96498.50;;;3.32;100.00
4598;BME280;62772;48.646;8.906;2023-12-20T12:18:01;96489.28;;;3.35;100.00
4598;BME280;62772;48.646;8.906;2023-12-20T12:23:05;96490.66;;;3.58;100.00
4598;BME280;62772;48.646;8.906;2023-12-20T12:28:06;96496.50;;;3.60;100.00
4598;BME280;62772;48.646;8.906;2023-12-20T12:33:07;96486.44;;;3.57;100.00
4598;BME280;62772;48.646;8.906;2023-12-20T12:38:08;96489.88;;;3.52;100.00
4598;BME280;62772;48.646;8.906;2023-12-20T12:43:09;96464.28;;;3.73;100.00
4598;BME280;62772;48.646;8.906;2023-12-20T12:48:09;96474.53;;;3.49;100.00
4598;BME280;62772;48.646;8.906;2023-12-20T12:53:10;96470.84;;;3.55;100.00
4598;BME280;62772;48.646;8.906;2023-12-20T12:58:10;96464.28;;;3.73;100.00
4598;BME280;62772;48.646;8.906;2023-12-20T13:03:11;96472.97;;;3.58;100.00
4598;BME280;62772;48.646;8.906;2023-12-20T13:08:11;96473.53;;;3.71;100.00
4598;BME280;62772;48.646;8.906;2023-12-20T13:13:12;96462.16;;;3.75;100.00
4598;BME280;62772;48.646;8.906;2023-12-20T13:18:12;96458.19;;;3.57;100.00
4598;BME280;62772;48.646;8.906;2023-12-20T13:23:13;96460.56;;;3.54;100.00
4598;BME280;62772;48.646;8.906;2023-12-20T13:28:13;96482.22;;;3.56;100.00
4598;BME280;62772;48.646;8.906;2023-12-20T13:33:14;96469.00;;;3.56;100.00
4598;BME280;62772;48.646;8.906;2023-12-20T13:38:14;96468.47;;;3.49;100.00
4598;BME280;62772;48.646;8.906;2023-12-20T13:43:15;96475.88;;;3.52;100.00
4598;BME280;62772;48.646;8.906;2023-12-20T13:48:20;96475.09;;;3.67;100.00
4598;BME280;62772;48.646;8.906;2023-12-20T13:53:21;96473.50;;;3.60;100.00
4598;BME280;62772;48.646;8.906;2023-12-20T13:58:21;96476.34;;;3.43;100.00
4598;BME280;62772;48.646;8.906;2023-12-20T14:03:24;96480.34;;;3.46;100.00
4598;BME280;62772;48.646;8.906;2023-12-20T14:08:25;96484.06;;;3.50;100.00
4598;BME280;62772;48.646;8.906;2023-12-20T14:13:27;96480.84;;;3.48;100.00
4598;BME280;62772;48.646;8.906;2023-12-20T14:18:27;96459.16;;;3.31;100.00
4598;BME280;62772;48.646;8.906;2023-12-20T14:23:28;96457.59;;;3.40;100.00
4598;BME280;62772;48.646;8.906;2023-12-20T14:28:28;96444.91;;;3.32;100.00
4598;BME280;62772;48.646;8.906;2023-12-20T14:33:28;96448.84;;;3.29;100.00
4598;BME280;62772;48.646;8.906;2023-12-20T14:38:29;96454.06;;;3.08;100.00
4598;BME280;62772;48.646;8.906;2023-12-20T14:43:29;96456.69;;;3.08;100.00
4598;BME280;62772;48.646;8.906;2023-12-20T14:48:30;96449.59;;;3.09;100.00
4598;BME280;62772;48.646;8.906;2023-12-20T14:53:30;96457.25;;;3.11;100.00
4598;BME280;62772;48.646;8.906;2023-12-20T14:58:31;96446.50;;;3.33;100.00
4598;BME280;62772;48.646;8.906;2023-12-20T15:03:32;96441.06;;;2.86;100.00
4598;BME280;62772;48.646;8.906;2023-12-20T15:08:32;96455.81;;;2.87;100.00
4598;BME280;62772;48.646;8.906;2023-12-20T15:13:32;96463.56;;;3.04;100.00
4598;BME280;62772;48.646;8.906;2023-12-20T15:18:33;96461.13;;;2.93;100.00
4598;BME280;62772;48.646;8.906;2023-12-20T15:23:33;96458.72;;;2.91;100.00
4598;BME280;62772;48.646;8.906;2023-12-20T15:28:34;96444.16;;;2.78;100.00
4598;BME280;62772;48.646;8.906;2023-12-20T15:33:34;96441.88;;;2.92;100.00
4598;BME280;62772;48.646;8.906;2023-12-20T15:38:35;96436.03;;;2.85;100.00
4598;BME280;62772;48.646;8.906;2023-12-20T15:43:35;96442.13;;;2.90;100.00
4598;BME280;62772;48.646;8.906;2023-12-20T15:48:36;96450.53;;;2.82;100.00
4598;BME280;62772;48.646;8.906;2023-12-20T15:53:37;96452.84;;;2.73;100.00
4598;BME280;62772;48.646;8.906;2023-12-20T15:58:37;96438.63;;;2.75;100.00
4598;BME280;62772;48.646;8.906;2023-12-20T16:03:38;96445.97;;;2.67;100.00
4598;BME280;62772;48.646;8.906;2023-12-20T16:08:38;96437.50;;;2.60;100.00
4598;BME280;62772;48.646;8.906;2023-12-20T16:13:39;96444.00;;;2.47;100.00
4598;BME280;62772;48.646;8.906;2023-12-20T16:18:39;96444.31;;;2.56;100.00
4598;BME280;62772;48.646;8.906;2023-12-20T16:23:40;96440.63;;;2.57;100.00
4598;BME280;62772;48.646;8.906;2023-12-20T16:28:40;96449.06;;;2.54;100.00
4598;BME280;62772;48.646;8.906;2023-12-20T16:33:41;96459.50;;;2.39;100.00
4598;BME280;62772;48.646;8.906;2023-12-20T16:38:41;96450.56;;;2.45;100.00
4598;BME280;62772;48.646;8.906;2023-12-20T16:43:41;96439.63;;;2.26;100.00
4598;BME280;62772;48.646;8.906;2023-12-20T16:48:42;96440.28;;;2.43;100.00
4598;BME280;62772;48.646;8.906;2023-12-20T16:53:42;96436.84;;;2.38;100.00
4598;BME280;62772;48.646;8.906;2023-12-20T16:58:43;96441.59;;;2.41;100.00
4598;BME280;62772;48.646;8.906;2023-12-20T17:03:43;96453.13;;;1.97;100.00
4598;BME280;62772;48.646;8.906;2023-12-20T17:08:44;96459.88;;;1.88;100.00
4598;BME280;62772;48.646;8.906;2023-12-20T17:13:45;96463.78;;;1.80;100.00
4598;BME280;62772;48.646;8.906;2023-12-20T17:18:45;96457.72;;;1.79;100.00
4598;BME280;62772;48.646;8.906;2023-12-20T17:23:48;96441.97;;;1.85;100.00
4598;BME280;62772;48.646;8.906;2023-12-20T17:28:49;96436.50;;;1.91;100.00
4598;BME280;62772;48.646;8.906;2023-12-20T17:33:49;96453.03;;;1.87;100.00
4598;BME280;62772;48.646;8.906;2023-12-20T17:38:50;96449.94;;;1.95;100.00
4598;BME280;62772;48.646;8.906;2023-12-20T17:43:50;96440.38;;;1.84;100.00
4598;BME280;62772;48.646;8.906;2023-12-20T17:48:50;96455.72;;;1.92;100.00
4598;BME280;62772;48.646;8.906;2023-12-20T17:53:51;96455.25;;;2.00;100.00
4598;BME280;62772;48.646;8.906;2023-12-20T17:58:51;96437.91;;;2.04;100.00
4598;BME280;62772;48.646;8.906;2023-12-20T18:03:53;96439.28;;;2.12;100.00
4598;BME280;62772;48.646;8.906;2023-12-20T18:08:54;96447.44;;;2.10;100.00
4598;BME280;62772;48.646;8.906;2023-12-20T18:13:55;96427.16;;;2.11;100.00
4598;BME280;62772;48.646;8.906;2023-12-20T18:18:55;96443.81;;;2.16;100.00
4598;BME280;62772;48.646;8.906;2023-12-20T18:23:56;96447.34;;;2.32;100.00
4598;BME280;62772;48.646;8.906;2023-12-20T18:28:56;96452.50;;;2.17;100.00
4598;BME280;62772;48.646;8.906;2023-12-20T18:33:57;96456.38;;;2.09;100.00
4598;BME280;62772;48.646;8.906;2023-12-20T18:38:57;96440.28;;;2.06;100.00
4598;BME280;62772;48.646;8.906;2023-12-20T18:43:58;96431.63;;;2.10;100.00
4598;BME280;62772;48.646;8.906;2023-12-20T18:48:59;96422.09;;;2.04;100.00
4598;BME280;62772;48.646;8.906;2023-12-20T18:54:05;96428.81;;;2.22;100.00
4598;BME280;62772;48.646;8.906;2023-12-20T18:59:05;96421.38;;;2.14;100.00
4598;BME280;62772;48.646;8.906;2023-12-20T19:04:06;96417.66;;;2.10;100.00
4598;BME280;62772;48.646;8.906;2023-12-20T19:09:06;96416.38;;;2.12;100.00
4598;BME280;62772;48.646;8.906;2023-12-20T19:14:07;96405.50;;;2.04;100.00
4598;BME280;62772;48.646;8.906;2023-12-20T19:19:11;96396.06;;;2.13;100.00
4598;BME280;62772;48.646;8.906;2023-12-20T19:24:12;96384.78;;;2.17;100.00
4598;BME280;62772;48.646;8.906;2023-12-20T19:29:12;96381.59;;;2.10;100.00
4598;BME280;62772;48.646;8.906;2023-12-20T19:34:13;96365.06;;;2.25;100.00
4598;BME280;62772;48.646;8.906;2023-12-20T19:39:13;96366.31;;;2.12;100.00
4598;BME280;62772;48.646;8.906;2023-12-20T19:44:14;96351.88;;;2.20;100.00
4598;BME280;62772;48.646;8.906;2023-12-20T19:49:17;96337.97;;;2.35;100.00
4598;BME280;62772;48.646;8.906;2023-12-20T19:54:17;96341.75;;;2.07;100.00
4598;BME280;62772;48.646;8.906;2023-12-20T19:59:17;96351.00;;;2.09;100.00
4598;BME280;62772;48.646;8.906;2023-12-20T20:04:18;96354.63;;;1.98;100.00
4598;BME280;62772;48.646;8.906;2023-12-20T20:09:19;96354.00;;;2.28;100.00
4598;BME280;62772;48.646;8.906;2023-12-20T20:14:19;96342.56;;;2.07;100.00
4598;BME280;62772;48.646;8.906;2023-12-20T20:19:20;96344.06;;;1.93;100.00
4598;BME280;62772;48.646;8.906;2023-12-20T20:24:20;96343.84;;;2.05;100.00
4598;BME280;62772;48.646;8.906;2023-12-20T20:29:21;96346.13;;;1.91;100.00
4598;BME280;62772;48.646;8.906;2023-12-20T20:34:21;96334.03;;;1.90;100.00
4598;BME280;62772;48.646;8.906;2023-12-20T20:39:27;96340.59;;;1.87;100.00
4598;BME280;62772;48.646;8.906;2023-12-20T20:44:28;96346.81;;;1.71;100.00
4598;BME280;62772;48.646;8.906;2023-12-20T20:49:28;96342.16;;;1.83;100.00
4598;BME280;62772;48.646;8.906;2023-12-20T20:54:29;96345.38;;;1.95;100.00
4598;BME280;62772;48.646;8.906;2023-12-20T20:59:30;96346.72;;;1.98;100.00
4598;BME280;62772;48.646;8.906;2023-12-20T21:04:30;96332.16;;;1.85;100.00
4598;BME280;62772;48.646;8.906;2023-12-20T21:09:32;96335.03;;;1.84;100.00
4598;BME280;62772;48.646;8.906;2023-12-20T21:14:32;96320.06;;;1.89;100.00
4598;BME280;62772;48.646;8.906;2023-12-20T21:19:33;96297.97;;;1.95;100.00
4598;BME280;62772;48.646;8.906;2023-12-20T21:24:33;96299.84;;;2.00;100.00
4598;BME280;62772;48.646;8.906;2023-12-20T21:29:35;96293.56;;;2.06;100.00
4598;BME280;62772;48.646;8.906;2023-12-20T21:34:36;96286.53;;;2.22;100.00
4598;BME280;62772;48.646;8.906;2023-12-20T21:39:36;96278.50;;;2.02;100.00
4598;BME280;62772;48.646;8.906;2023-12-20T21:44:37;96282.81;;;2.18;100.00
4598;BME280;62772;48.646;8.906;2023-12-20T21:49:37;96250.41;;;2.23;100.00
4598;BME280;62772;48.646;8.906;2023-12-20T21:54:38;96247.50;;;2.14;100.00
4598;BME280;62772;48.646;8.906;2023-12-20T21:59:38;96234.63;;;2.28;100.00
4598;BME280;62772;48.646;8.906;2023-12-20T22:04:39;96232.28;;;2.31;100.00
4598;BME280;62772;48.646;8.906;2023-12-20T22:09:39;96236.50;;;2.32;100.00
4598;BME280;62772;48.646;8.906;2023-12-20T22:14:40;96211.72;;;2.28;100.00
4598;BME280;62772;48.646;8.906;2023-12-20T22:19:40;96202.53;;;2.41;100.00
4598;BME280;62772;48.646;8.906;2023-12-20T22:24:41;96210.34;;;2.21;100.00
4598;BME280;62772;48.646;8.906;2023-12-20T22:29:41;96212.75;;;2.27;100.00
4598;BME280;62772;48.646;8.906;2023-12-20T22:34:42;96209.31;;;2.22;100.00
4598;BME280;62772;48.646;8.906;2023-12-20T22:39:42;96206.19;;;2.30;100.00
4598;BME280;62772;48.646;8.906;2023-12-20T22:44:42;96203.56;;;2.35;100.00
4598;BME280;62772;48.646;8.906;2023-12-20T22:49:43;96203.81;;;2.33;100.00
4598;BME280;62772;48.646;8.906;2023-12-20T22:54:43;96198.59;;;2.44;100.00
4598;BME280;62772;48.646;8.906;2023-12-20T22:59:44;96186.72;;;2.46;100.00
4598;BME280;62772;48.646;8.906;2023-12-20T23:04:44;96169.84;;;2.37;100.00
4598;BME280;62772;48.646;8.906;2023-12-20T23:09:45;96160.59;;;2.45;100.00
4598;BME280;62772;48.646;8.906;2023-12-20T23:14:46;96151.41;;;2.52;100.00
4598;BME280;62772;48.646;8.906;2023-12-20T23:19:46;96139.28;;;2.57;100.00
4598;BME280;62772;48.646;8.906;2023-12-20T23:24:47;96140.06;;;2.52;100.00
4598;BME280;62772;48.646;8.906;2023-12-20T23:29:47;96120.84;;;2.57;100.00
4598;BME280;62772;48.646;8.906;2023-12-20T23:34:49;96115.81;;;2.60;100.00
4598;BME280;62772;48.646;8.906;2023-12-20T23:39:50;96095.78;;;2.64;100.00
4598;BME280;62772;48.646;8.906;2023-12-20T23:44:50;96095.00;;;2.59;100.00
4598;BME280;62772;48.646;8.906;2023-12-20T23:49:51;96088.13;;;2.52;100.00
4598;BME280;62772;48.646;8.906;2023-12-20T23:54:51;96074.69;;;2.49;100.00
4598;BME280;62772;48.646;8.906;2023-12-20T23:59:51;96085.22;;;2.49;100.00
